sensor_id;sensor_type;location;lat;lon;timestamp;temperature;humidity
12872;DHT22;6504;53.766;9.626;2023-07-29T00:02:15;18.90;99.90
12872;DHT22;6504;53.766;9.626;2023-07-29T00:04:43;18.90;99.90
12872;DHT22;6504;53.766;9.626;2023-07-29T00:07:11;18.90;99.90
12872;DHT22;6504;53.766;9.626;2023-07-29T00:09:41;18.90;99.90
12872;DHT22;6504;53.766;9.626;2023-07-29T00:12:09;18.90;99.90
12872;DHT22;6504;53.766;9.626;2023-07-29T00:14:37;18.90;99.90
12872;DHT22;6504;53.766;9.626;2023-07-29T00:17:05;18.90;99.90
12872;DHT22;6504;53.766;9.626;2023-07-29T00:19:33;18.90;99.90
12872;DHT22;6504;53.766;9.626;2023-07-29T00:22:01;18.90;99.90
12872;DHT22;6504;53.766;9.626;2023-07-29T00:24:30;18.90;99.90
12872;DHT22;6504;53.766;9.626;2023-07-29T00:26:59;18.80;99.90
12872;DHT22;6504;53.766;9.626;2023-07-29T00:29:27;18.80;99.90
12872;DHT22;6504;53.766;9.626;2023-07-29T00:31:55;18.80;99.90
12872;DHT22;6504;53.766;9.626;2023-07-29T00:34:23;18.90;99.90
12872;DHT22;6504;53.766;9.626;2023-07-29T00:36:52;18.80;99.90
12872;DHT22;6504;53.766;9.626;2023-07-29T00:39:21;18.80;99.90
12872;DHT22;6504;53.766;9.626;2023-07-29T00:41:49;18.80;99.90
12872;DHT22;6504;53.766;9.626;2023-07-29T00:44:19;18.80;99.90
12872;DHT22;6504;53.766;9.626;2023-07-29T00:46:49;18.90;99.90
12872;DHT22;6504;53.766;9.626;2023-07-29T00:49:18;18.80;99.90
12872;DHT22;6504;53.766;9.626;2023-07-29T00:51:46;18.80;99.90
12872;DHT22;6504;53.766;9.626;2023-07-29T00:54:14;18.80;99.90
12872;DHT22;6504;53.766;9.626;2023-07-29T00:56:42;18.80;99.90
12872;DHT22;6504;53.766;9.626;2023-07-29T00:59:10;18.80;99.90
12872;DHT22;6504;53.766;9.626;2023-07-29T01:01:40;18.80;99.90
12872;DHT22;6504;53.766;9.626;2023-07-29T01:04:08;18.80;99.90
12872;DHT22;6504;53.766;9.626;2023-07-29T01:06:41;18.80;99.90
12872;DHT22;6504;53.766;9.626;2023-07-29T01:09:18;18.80;99.90
12872;DHT22;6504;53.766;9.626;2023-07-29T01:11:55;18.80;99.90
12872;DHT22;6504;53.766;9.626;2023-07-29T01:14:31;18.80;99.90
12872;DHT22;6504;53.766;9.626;2023-07-29T01:17:04;18.80;99.90
12872;DHT22;6504;53.766;9.626;2023-07-29T01:19:43;18.80;99.90
12872;DHT22;6504;53.766;9.626;2023-07-29T01:22:16;18.80;99.90
12872;DHT22;6504;53.766;9.626;2023-07-29T01:24:45;18.80;99.90
12872;DHT22;6504;53.766;9.626;2023-07-29T01:27:13;18.80;99.90
12872;DHT22;6504;53.766;9.626;2023-07-29T01:29:42;18.80;99.90
12872;DHT22;6504;53.766;9.626;2023-07-29T01:32:11;18.80;99.90
12872;DHT22;6504;53.766;9.626;2023-07-29T01:34:46;18.80;99.90
12872;DHT22;6504;53.766;9.626;2023-07-29T01:37:19;18.80;99.90
12872;DHT22;6504;53.766;9.626;2023-07-29T01:39:53;18.80;99.90
12872;DHT22;6504;53.766;9.626;2023-07-29T01:42:23;18.80;99.90
12872;DHT22;6504;53.766;9.626;2023-07-29T01:44:53;18.80;99.90
12872;DHT22;6504;53.766;9.626;2023-07-29T01:47:21;18.80;99.90
12872;DHT22;6504;53.766;9.626;2023-07-29T01:49:51;18.80;99.90
12872;DHT22;6504;53.766;9.626;2023-07-29T01:52:19;18.80;99.90
12872;DHT22;6504;53.766;9.626;2023-07-29T01:54:47;18.80;99.90
12872;DHT22;6504;53.766;9.626;2023-07-29T01:57:16;18.80;99.90
12872;DHT22;6504;53.766;9.626;2023-07-29T01:59:44;18.70;99.90
12872;DHT22;6504;53.766;9.626;2023-07-29T02:02:12;18.70;99.90
12872;DHT22;6504;53.766;9.626;2023-07-29T02:04:40;18.70;99.90
12872;DHT22;6504;53.766;9.626;2023-07-29T02:07:09;18.70;99.90
12872;DHT22;6504;53.766;9.626;2023-07-29T02:09:37;18.70;99.90
12872;DHT22;6504;53.766;9.626;2023-07-29T02:12:05;18.70;99.90
12872;DHT22;6504;53.766;9.626;2023-07-29T02:14:35;18.80;99.90
12872;DHT22;6504;53.766;9.626;2023-07-29T02:17:03;18.70;99.90
12872;DHT22;6504;53.766;9.626;2023-07-29T02:19:32;18.80;99.90
12872;DHT22;6504;53.766;9.626;2023-07-29T02:22:00;18.80;99.90
12872;DHT22;6504;53.766;9.626;2023-07-29T02:24:28;18.80;99.90
12872;DHT22;6504;53.766;9.626;2023-07-29T02:26:57;18.70;99.90
12872;DHT22;6504;53.766;9.626;2023-07-29T02:29:25;18.70;99.90
12872;DHT22;6504;53.766;9.626;2023-07-29T02:31:55;18.70;99.90
12872;DHT22;6504;53.766;9.626;2023-07-29T02:34:23;18.70;99.90
12872;DHT22;6504;53.766;9.626;2023-07-29T02:36:51;18.70;99.90
12872;DHT22;6504;53.766;9.626;2023-07-29T02:39:19;18.70;99.90
12872;DHT22;6504;53.766;9.626;2023-07-29T02:41:47;18.70;99.90
12872;DHT22;6504;53.766;9.626;2023-07-29T02:44:15;18.70;99.90
12872;DHT22;6504;53.766;9.626;2023-07-29T02:46:43;18.70;99.90
12872;DHT22;6504;53.766;9.626;2023-07-29T02:49:13;18.70;99.90
12872;DHT22;6504;53.766;9.626;2023-07-29T02:51:41;18.70;99.90
12872;DHT22;6504;53.766;9.626;2023-07-29T02:54:09;18.70;99.90
12872;DHT22;6504;53.766;9.626;2023-07-29T02:56:37;18.70;99.90
12872;DHT22;6504;53.766;9.626;2023-07-29T02:59:05;18.70;99.90
12872;DHT22;6504;53.766;9.626;2023-07-29T03:01:34;18.70;99.90
12872;DHT22;6504;53.766;9.626;2023-07-29T03:04:02;18.70;99.90
12872;DHT22;6504;53.766;9.626;2023-07-29T03:06:31;18.70;99.90
12872;DHT22;6504;53.766;9.626;2023-07-29T03:09:00;18.70;99.90
12872;DHT22;6504;53.766;9.626;2023-07-29T03:11:28;18.70;99.90
12872;DHT22;6504;53.766;9.626;2023-07-29T03:13:57;18.70;99.90
12872;DHT22;6504;53.766;9.626;2023-07-29T03:16:25;18.70;99.90
12872;DHT22;6504;53.766;9.626;2023-07-29T03:18:54;18.70;99.90
12872;DHT22;6504;53.766;9.626;2023-07-29T03:21:22;18.70;99.90
12872;DHT22;6504;53.766;9.626;2023-07-29T03:23:51;18.70;99.90
12872;DHT22;6504;53.766;9.626;2023-07-29T03:26:20;18.70;99.90
12872;DHT22;6504;53.766;9.626;2023-07-29T03:28:48;18.70;99.90
12872;DHT22;6504;53.766;9.626;2023-07-29T03:31:16;18.70;99.90
12872;DHT22;6504;53.766;9.626;2023-07-29T03:33:44;18.60;99.90
12872;DHT22;6504;53.766;9.626;2023-07-29T03:36:12;18.60;99.90
12872;DHT22;6504;53.766;9.626;2023-07-29T03:38:41;18.60;99.90
12872;DHT22;6504;53.766;9.626;2023-07-29T03:41:10;18.60;99.90
12872;DHT22;6504;53.766;9.626;2023-07-29T03:43:38;18.60;99.90
12872;DHT22;6504;53.766;9.626;2023-07-29T03:46:06;18.60;99.90
12872;DHT22;6504;53.766;9.626;2023-07-29T03:48:38;18.60;99.90
12872;DHT22;6504;53.766;9.626;2023-07-29T03:51:06;18.60;99.90
12872;DHT22;6504;53.766;9.626;2023-07-29T03:53:34;18.70;99.90
12872;DHT22;6504;53.766;9.626;2023-07-29T03:56:02;18.60;99.90
12872;DHT22;6504;53.766;9.626;2023-07-29T03:58:32;18.70;99.90
12872;DHT22;6504;53.766;9.626;2023-07-29T04:01:00;18.60;99.90
12872;DHT22;6504;53.766;9.626;2023-07-29T04:03:30;18.70;99.90
12872;DHT22;6504;53.766;9.626;2023-07-29T04:05:58;18.70;99.90
12872;DHT22;6504;53.766;9.626;2023-07-29T04:08:26;18.70;99.90
12872;DHT22;6504;53.766;9.626;2023-07-29T04:10:54;18.70;99.90
12872;DHT22;6504;53.766;9.626;2023-07-29T04:13:22;18.70;99.90
12872;DHT22;6504;53.766;9.626;2023-07-29T04:15:52;18.70;99.90
12872;DHT22;6504;53.766;9.626;2023-07-29T04:18:20;18.70;99.90
12872;DHT22;6504;53.766;9.626;2023-07-29T04:20:48;18.70;99.90
12872;DHT22;6504;53.766;9.626;2023-07-29T04:23:16;18.70;99.90
12872;DHT22;6504;53.766;9.626;2023-07-29T04:25:44;18.70;99.90
12872;DHT22;6504;53.766;9.626;2023-07-29T04:28:12;18.70;99.90
12872;DHT22;6504;53.766;9.626;2023-07-29T04:30:40;18.70;99.90
12872;DHT22;6504;53.766;9.626;2023-07-29T04:33:10;18.70;99.90
12872;DHT22;6504;53.766;9.626;2023-07-29T04:35:38;18.70;99.90
12872;DHT22;6504;53.766;9.626;2023-07-29T04:38:06;18.80;99.90
12872;DHT22;6504;53.766;9.626;2023-07-29T04:40:34;18.70;99.90
12872;DHT22;6504;53.766;9.626;2023-07-29T04:43:02;18.80;99.90
12872;DHT22;6504;53.766;9.626;2023-07-29T04:45:31;18.70;99.90
12872;DHT22;6504;53.766;9.626;2023-07-29T04:47:59;18.80;99.90
12872;DHT22;6504;53.766;9.626;2023-07-29T04:50:28;18.80;99.90
12872;DHT22;6504;53.766;9.626;2023-07-29T04:52:56;18.70;99.90
12872;DHT22;6504;53.766;9.626;2023-07-29T04:55:24;18.70;99.90
12872;DHT22;6504;53.766;9.626;2023-07-29T04:57:53;18.70;99.90
12872;DHT22;6504;53.766;9.626;2023-07-29T05:00:22;18.70;99.90
12872;DHT22;6504;53.766;9.626;2023-07-29T05:02:50;18.80;99.90
12872;DHT22;6504;53.766;9.626;2023-07-29T05:05:18;18.70;99.90
12872;DHT22;6504;53.766;9.626;2023-07-29T05:07:47;18.80;99.90
12872;DHT22;6504;53.766;9.626;2023-07-29T05:10:16;18.80;99.90
12872;DHT22;6504;53.766;9.626;2023-07-29T05:12:44;18.80;99.90
12872;DHT22;6504;53.766;9.626;2023-07-29T05:15:12;18.80;99.90
12872;DHT22;6504;53.766;9.626;2023-07-29T05:17:40;18.80;99.90
12872;DHT22;6504;53.766;9.626;2023-07-29T05:20:10;18.80;99.90
12872;DHT22;6504;53.766;9.626;2023-07-29T05:22:38;18.80;99.90
12872;DHT22;6504;53.766;9.626;2023-07-29T05:25:08;18.90;99.90
12872;DHT22;6504;53.766;9.626;2023-07-29T05:27:36;18.90;99.90
12872;DHT22;6504;53.766;9.626;2023-07-29T05:30:05;18.90;99.90
12872;DHT22;6504;53.766;9.626;2023-07-29T05:32:34;19.00;99.90
12872;DHT22;6504;53.766;9.626;2023-07-29T05:35:02;19.00;99.90
12872;DHT22;6504;53.766;9.626;2023-07-29T05:37:30;19.00;99.90
12872;DHT22;6504;53.766;9.626;2023-07-29T05:39:58;19.10;99.90
12872;DHT22;6504;53.766;9.626;2023-07-29T05:42:28;19.10;99.90
12872;DHT22;6504;53.766;9.626;2023-07-29T05:44:56;19.10;99.90
12872;DHT22;6504;53.766;9.626;2023-07-29T05:47:24;19.10;99.90
12872;DHT22;6504;53.766;9.626;2023-07-29T05:49:52;19.20;99.90
12872;DHT22;6504;53.766;9.626;2023-07-29T05:52:21;19.20;99.90
12872;DHT22;6504;53.766;9.626;2023-07-29T05:54:49;19.20;99.90
12872;DHT22;6504;53.766;9.626;2023-07-29T05:57:17;19.20;99.90
12872;DHT22;6504;53.766;9.626;2023-07-29T05:59:46;19.20;99.90
12872;DHT22;6504;53.766;9.626;2023-07-29T06:02:14;19.20;99.90
12872;DHT22;6504;53.766;9.626;2023-07-29T06:04:42;19.20;99.90
12872;DHT22;6504;53.766;9.626;2023-07-29T06:07:11;19.30;99.90
12872;DHT22;6504;53.766;9.626;2023-07-29T06:09:39;19.30;99.90
12872;DHT22;6504;53.766;9.626;2023-07-29T06:12:08;19.30;99.90
12872;DHT22;6504;53.766;9.626;2023-07-29T06:14:36;19.30;99.90
12872;DHT22;6504;53.766;9.626;2023-07-29T06:17:06;19.30;99.90
12872;DHT22;6504;53.766;9.626;2023-07-29T06:19:34;19.30;99.90
12872;DHT22;6504;53.766;9.626;2023-07-29T06:22:03;19.30;99.90
12872;DHT22;6504;53.766;9.626;2023-07-29T06:24:32;19.40;99.90
12872;DHT22;6504;53.766;9.626;2023-07-29T06:27:00;19.40;99.90
12872;DHT22;6504;53.766;9.626;2023-07-29T06:29:28;19.40;99.90
12872;DHT22;6504;53.766;9.626;2023-07-29T06:31:58;19.50;99.90
12872;DHT22;6504;53.766;9.626;2023-07-29T06:34:27;19.50;99.90
12872;DHT22;6504;53.766;9.626;2023-07-29T06:36:55;19.60;99.90
12872;DHT22;6504;53.766;9.626;2023-07-29T06:39:23;19.60;99.90
12872;DHT22;6504;53.766;9.626;2023-07-29T06:41:51;19.70;99.90
12872;DHT22;6504;53.766;9.626;2023-07-29T06:44:19;19.70;99.90
12872;DHT22;6504;53.766;9.626;2023-07-29T06:46:48;19.70;99.90
12872;DHT22;6504;53.766;9.626;2023-07-29T06:49:16;19.70;99.90
12872;DHT22;6504;53.766;9.626;2023-07-29T06:51:45;19.80;99.90
12872;DHT22;6504;53.766;9.626;2023-07-29T06:54:13;19.90;99.90
12872;DHT22;6504;53.766;9.626;2023-07-29T06:56:41;20.00;99.90
12872;DHT22;6504;53.766;9.626;2023-07-29T06:59:10;20.10;99.90
12872;DHT22;6504;53.766;9.626;2023-07-29T07:01:38;20.20;99.90
12872;DHT22;6504;53.766;9.626;2023-07-29T07:04:06;20.30;99.90
12872;DHT22;6504;53.766;9.626;2023-07-29T07:06:34;20.30;99.90
12872;DHT22;6504;53.766;9.626;2023-07-29T07:09:04;20.40;99.90
12872;DHT22;6504;53.766;9.626;2023-07-29T07:11:32;20.40;99.90
12872;DHT22;6504;53.766;9.626;2023-07-29T07:14:00;20.50;99.90
12872;DHT22;6504;53.766;9.626;2023-07-29T07:16:28;20.50;99.90
12872;DHT22;6504;53.766;9.626;2023-07-29T07:18:57;20.60;99.90
12872;DHT22;6504;53.766;9.626;2023-07-29T07:21:25;20.60;99.90
12872;DHT22;6504;53.766;9.626;2023-07-29T07:23:53;20.60;99.90
12872;DHT22;6504;53.766;9.626;2023-07-29T07:26:23;20.70;99.90
12872;DHT22;6504;53.766;9.626;2023-07-29T07:28:51;20.70;99.90
12872;DHT22;6504;53.766;9.626;2023-07-29T07:31:19;20.70;99.90
12872;DHT22;6504;53.766;9.626;2023-07-29T07:33:47;20.70;99.90
12872;DHT22;6504;53.766;9.626;2023-07-29T07:36:15;20.80;99.90
12872;DHT22;6504;53.766;9.626;2023-07-29T07:38:43;20.80;99.90
12872;DHT22;6504;53.766;9.626;2023-07-29T07:41:12;20.80;99.90
12872;DHT22;6504;53.766;9.626;2023-07-29T07:43:41;20.90;99.90
12872;DHT22;6504;53.766;9.626;2023-07-29T07:46:09;20.90;99.90
12872;DHT22;6504;53.766;9.626;2023-07-29T07:48:38;20.90;99.90
12872;DHT22;6504;53.766;9.626;2023-07-29T07:51:13;20.90;99.90
12872;DHT22;6504;53.766;9.626;2023-07-29T07:53:41;20.90;99.90
12872;DHT22;6504;53.766;9.626;2023-07-29T07:56:09;20.90;99.90
12872;DHT22;6504;53.766;9.626;2023-07-29T07:58:38;20.90;99.90
12872;DHT22;6504;53.766;9.626;2023-07-29T08:01:08;20.90;99.90
12872;DHT22;6504;53.766;9.626;2023-07-29T08:03:36;21.00;99.90
12872;DHT22;6504;53.766;9.626;2023-07-29T08:06:05;21.00;99.90
12872;DHT22;6504;53.766;9.626;2023-07-29T08:08:36;21.00;99.90
12872;DHT22;6504;53.766;9.626;2023-07-29T08:11:04;21.00;99.90
12872;DHT22;6504;53.766;9.626;2023-07-29T08:13:33;21.10;99.90
12872;DHT22;6504;53.766;9.626;2023-07-29T08:16:01;21.10;99.90
12872;DHT22;6504;53.766;9.626;2023-07-29T08:18:31;21.10;99.90
12872;DHT22;6504;53.766;9.626;2023-07-29T08:21:00;21.20;99.90
12872;DHT22;6504;53.766;9.626;2023-07-29T08:23:31;21.20;99.90
12872;DHT22;6504;53.766;9.626;2023-07-29T08:26:01;21.20;99.90
12872;DHT22;6504;53.766;9.626;2023-07-29T08:28:31;21.30;99.90
12872;DHT22;6504;53.766;9.626;2023-07-29T08:31:00;21.30;99.90
12872;DHT22;6504;53.766;9.626;2023-07-29T08:33:30;21.30;99.90
12872;DHT22;6504;53.766;9.626;2023-07-29T08:35:59;21.30;99.90
12872;DHT22;6504;53.766;9.626;2023-07-29T08:38:27;21.40;99.90
12872;DHT22;6504;53.766;9.626;2023-07-29T08:41:04;21.40;99.90
12872;DHT22;6504;53.766;9.626;2023-07-29T08:43:33;21.40;99.90
12872;DHT22;6504;53.766;9.626;2023-07-29T08:46:02;21.50;99.90
12872;DHT22;6504;53.766;9.626;2023-07-29T08:48:39;21.60;99.90
12872;DHT22;6504;53.766;9.626;2023-07-29T08:51:08;21.60;99.90
12872;DHT22;6504;53.766;9.626;2023-07-29T08:53:37;21.80;99.90
12872;DHT22;6504;53.766;9.626;2023-07-29T08:56:06;21.90;99.90
12872;DHT22;6504;53.766;9.626;2023-07-29T08:58:35;22.00;99.90
12872;DHT22;6504;53.766;9.626;2023-07-29T09:01:04;22.00;99.90
12872;DHT22;6504;53.766;9.626;2023-07-29T09:03:33;22.20;99.90
12872;DHT22;6504;53.766;9.626;2023-07-29T09:06:02;22.30;99.90
12872;DHT22;6504;53.766;9.626;2023-07-29T09:08:31;22.40;99.90
12872;DHT22;6504;53.766;9.626;2023-07-29T09:11:00;22.50;99.90
12872;DHT22;6504;53.766;9.626;2023-07-29T09:13:28;22.60;99.90
12872;DHT22;6504;53.766;9.626;2023-07-29T09:15:57;22.60;99.90
12872;DHT22;6504;53.766;9.626;2023-07-29T09:18:27;22.70;99.90
12872;DHT22;6504;53.766;9.626;2023-07-29T09:20:59;22.80;99.90
12872;DHT22;6504;53.766;9.626;2023-07-29T09:23:28;22.80;99.90
12872;DHT22;6504;53.766;9.626;2023-07-29T09:26:01;22.90;99.90
12872;DHT22;6504;53.766;9.626;2023-07-29T09:28:33;23.00;99.90
12872;DHT22;6504;53.766;9.626;2023-07-29T09:31:02;23.10;99.90
12872;DHT22;6504;53.766;9.626;2023-07-29T09:33:33;23.10;99.90
12872;DHT22;6504;53.766;9.626;2023-07-29T09:36:08;23.10;99.90
12872;DHT22;6504;53.766;9.626;2023-07-29T09:38:37;23.10;99.90
12872;DHT22;6504;53.766;9.626;2023-07-29T09:41:06;23.10;99.90
12872;DHT22;6504;53.766;9.626;2023-07-29T09:43:35;23.20;99.90
12872;DHT22;6504;53.766;9.626;2023-07-29T09:46:05;23.20;99.90
12872;DHT22;6504;53.766;9.626;2023-07-29T09:48:35;23.30;99.90
12872;DHT22;6504;53.766;9.626;2023-07-29T09:51:11;23.40;99.90
12872;DHT22;6504;53.766;9.626;2023-07-29T09:53:41;23.40;99.90
12872;DHT22;6504;53.766;9.626;2023-07-29T09:56:13;23.50;99.90
12872;DHT22;6504;53.766;9.626;2023-07-29T09:58:43;23.60;99.90
12872;DHT22;6504;53.766;9.626;2023-07-29T10:01:12;23.70;99.90
12872;DHT22;6504;53.766;9.626;2023-07-29T10:03:42;23.80;99.90
12872;DHT22;6504;53.766;9.626;2023-07-29T10:06:12;23.80;99.90
12872;DHT22;6504;53.766;9.626;2023-07-29T10:08:42;23.90;99.90
12872;DHT22;6504;53.766;9.626;2023-07-29T10:11:11;24.10;99.90
12872;DHT22;6504;53.766;9.626;2023-07-29T10:13:39;24.20;99.90
12872;DHT22;6504;53.766;9.626;2023-07-29T10:16:12;24.20;99.90
12872;DHT22;6504;53.766;9.626;2023-07-29T10:18:40;24.20;99.90
12872;DHT22;6504;53.766;9.626;2023-07-29T10:21:12;24.30;99.90
12872;DHT22;6504;53.766;9.626;2023-07-29T10:23:43;24.30;99.90
12872;DHT22;6504;53.766;9.626;2023-07-29T10:26:14;24.20;99.90
12872;DHT22;6504;53.766;9.626;2023-07-29T10:28:47;24.10;99.90
12872;DHT22;6504;53.766;9.626;2023-07-29T10:31:16;24.10;99.90
12872;DHT22;6504;53.766;9.626;2023-07-29T10:33:44;24.00;99.90
12872;DHT22;6504;53.766;9.626;2023-07-29T10:36:15;23.90;99.90
12872;DHT22;6504;53.766;9.626;2023-07-29T10:38:44;23.80;99.90
12872;DHT22;6504;53.766;9.626;2023-07-29T10:41:13;23.80;99.90
12872;DHT22;6504;53.766;9.626;2023-07-29T10:43:41;23.70;99.90
12872;DHT22;6504;53.766;9.626;2023-07-29T10:46:16;23.70;99.90
12872;DHT22;6504;53.766;9.626;2023-07-29T10:48:53;23.60;99.90
12872;DHT22;6504;53.766;9.626;2023-07-29T10:51:30;23.60;99.90
12872;DHT22;6504;53.766;9.626;2023-07-29T10:54:01;23.60;99.90
12872;DHT22;6504;53.766;9.626;2023-07-29T10:56:31;23.60;99.90
12872;DHT22;6504;53.766;9.626;2023-07-29T10:59:31;23.50;99.90
12872;DHT22;6504;53.766;9.626;2023-07-29T11:02:00;23.50;99.90
12872;DHT22;6504;53.766;9.626;2023-07-29T11:04:30;23.40;99.90
12872;DHT22;6504;53.766;9.626;2023-07-29T11:07:25;23.40;99.90
12872;DHT22;6504;53.766;9.626;2023-07-29T11:10:03;23.40;99.90
12872;DHT22;6504;53.766;9.626;2023-07-29T11:12:43;23.50;99.90
12872;DHT22;6504;53.766;9.626;2023-07-29T11:15:23;23.50;99.90
12872;DHT22;6504;53.766;9.626;2023-07-29T11:17:52;23.60;99.90
12872;DHT22;6504;53.766;9.626;2023-07-29T11:20:24;23.70;99.90
12872;DHT22;6504;53.766;9.626;2023-07-29T11:22:55;23.70;99.90
12872;DHT22;6504;53.766;9.626;2023-07-29T11:25:24;23.70;99.90
12872;DHT22;6504;53.766;9.626;2023-07-29T11:27:54;23.70;99.90
12872;DHT22;6504;53.766;9.626;2023-07-29T11:30:23;23.80;99.90
12872;DHT22;6504;53.766;9.626;2023-07-29T11:32:54;23.90;99.90
12872;DHT22;6504;53.766;9.626;2023-07-29T11:35:22;24.00;99.90
12872;DHT22;6504;53.766;9.626;2023-07-29T11:37:54;24.00;99.90
12872;DHT22;6504;53.766;9.626;2023-07-29T11:40:23;24.10;99.90
12872;DHT22;6504;53.766;9.626;2023-07-29T11:42:52;24.10;99.90
12872;DHT22;6504;53.766;9.626;2023-07-29T11:45:22;24.20;99.90
12872;DHT22;6504;53.766;9.626;2023-07-29T11:48:01;24.30;99.90
12872;DHT22;6504;53.766;9.626;2023-07-29T11:50:30;24.40;99.90
12872;DHT22;6504;53.766;9.626;2023-07-29T11:53:02;24.40;99.90
12872;DHT22;6504;53.766;9.626;2023-07-29T11:57:26;24.50;99.90
12872;DHT22;6504;53.766;9.626;2023-07-29T11:59:01;24.60;99.90
12872;DHT22;6504;53.766;9.626;2023-07-29T12:01:31;24.80;99.90
12872;DHT22;6504;53.766;9.626;2023-07-29T12:03:59;24.90;99.90
12872;DHT22;6504;53.766;9.626;2023-07-29T12:06:27;24.90;99.90
12872;DHT22;6504;53.766;9.626;2023-07-29T12:08:59;24.90;99.90
12872;DHT22;6504;53.766;9.626;2023-07-29T12:11:28;25.00;99.90
12872;DHT22;6504;53.766;9.626;2023-07-29T12:13:59;25.00;99.90
12872;DHT22;6504;53.766;9.626;2023-07-29T12:16:27;25.00;99.90
12872;DHT22;6504;53.766;9.626;2023-07-29T12:19:01;25.10;99.90
12872;DHT22;6504;53.766;9.626;2023-07-29T12:21:29;25.20;99.90
12872;DHT22;6504;53.766;9.626;2023-07-29T12:23:59;25.40;99.90
12872;DHT22;6504;53.766;9.626;2023-07-29T12:26:28;25.60;99.90
12872;DHT22;6504;53.766;9.626;2023-07-29T12:28:56;25.80;99.90
12872;DHT22;6504;53.766;9.626;2023-07-29T12:31:31;25.80;99.90
12872;DHT22;6504;53.766;9.626;2023-07-29T12:33:59;25.80;99.90
12872;DHT22;6504;53.766;9.626;2023-07-29T12:36:41;25.70;99.90
12872;DHT22;6504;53.766;9.626;2023-07-29T12:39:18;25.60;99.90
12872;DHT22;6504;53.766;9.626;2023-07-29T12:41:47;25.60;99.90
12872;DHT22;6504;53.766;9.626;2023-07-29T12:44:19;25.50;99.90
12872;DHT22;6504;53.766;9.626;2023-07-29T12:46:47;25.40;99.90
12872;DHT22;6504;53.766;9.626;2023-07-29T12:49:16;25.40;99.90
12872;DHT22;6504;53.766;9.626;2023-07-29T12:51:44;25.20;99.90
12872;DHT22;6504;53.766;9.626;2023-07-29T12:54:13;25.10;99.90
12872;DHT22;6504;53.766;9.626;2023-07-29T12:56:42;25.00;99.90
12872;DHT22;6504;53.766;9.626;2023-07-29T12:59:10;25.10;99.90
12872;DHT22;6504;53.766;9.626;2023-07-29T13:01:38;25.20;99.90
12872;DHT22;6504;53.766;9.626;2023-07-29T13:04:06;25.30;99.90
12872;DHT22;6504;53.766;9.626;2023-07-29T13:06:34;25.40;99.90
12872;DHT22;6504;53.766;9.626;2023-07-29T13:09:03;25.40;99.90
12872;DHT22;6504;53.766;9.626;2023-07-29T13:11:32;25.50;99.90
12872;DHT22;6504;53.766;9.626;2023-07-29T13:14:01;25.50;99.90
12872;DHT22;6504;53.766;9.626;2023-07-29T13:16:29;25.50;99.90
12872;DHT22;6504;53.766;9.626;2023-07-29T13:18:57;25.40;99.90
12872;DHT22;6504;53.766;9.626;2023-07-29T13:21:25;25.40;99.90
12872;DHT22;6504;53.766;9.626;2023-07-29T13:23:53;25.40;99.90
12872;DHT22;6504;53.766;9.626;2023-07-29T13:26:21;25.50;99.90
12872;DHT22;6504;53.766;9.626;2023-07-29T13:28:49;25.60;99.90
12872;DHT22;6504;53.766;9.626;2023-07-29T13:31:19;25.60;99.90
12872;DHT22;6504;53.766;9.626;2023-07-29T13:33:47;25.60;99.90
12872;DHT22;6504;53.766;9.626;2023-07-29T13:36:15;25.50;99.90
12872;DHT22;6504;53.766;9.626;2023-07-29T13:38:43;25.50;99.90
12872;DHT22;6504;53.766;9.626;2023-07-29T13:41:11;25.40;99.90
12872;DHT22;6504;53.766;9.626;2023-07-29T13:43:39;25.30;99.90
12872;DHT22;6504;53.766;9.626;2023-07-29T13:46:07;25.30;99.90
12872;DHT22;6504;53.766;9.626;2023-07-29T13:48:37;25.10;99.90
12872;DHT22;6504;53.766;9.626;2023-07-29T13:51:05;25.00;99.90
12872;DHT22;6504;53.766;9.626;2023-07-29T13:53:33;24.90;99.90
12872;DHT22;6504;53.766;9.626;2023-07-29T13:56:01;24.90;99.90
12872;DHT22;6504;53.766;9.626;2023-07-29T13:58:29;24.90;99.90
12872;DHT22;6504;53.766;9.626;2023-07-29T14:00:57;24.80;99.90
12872;DHT22;6504;53.766;9.626;2023-07-29T14:03:26;24.70;99.90
12872;DHT22;6504;53.766;9.626;2023-07-29T14:05:55;24.70;99.90
12872;DHT22;6504;53.766;9.626;2023-07-29T14:08:24;24.70;99.90
12872;DHT22;6504;53.766;9.626;2023-07-29T14:10:52;24.70;99.90
12872;DHT22;6504;53.766;9.626;2023-07-29T14:13:20;24.70;99.90
12872;DHT22;6504;53.766;9.626;2023-07-29T14:15:48;24.70;99.90
12872;DHT22;6504;53.766;9.626;2023-07-29T14:18:16;24.60;99.90
12872;DHT22;6504;53.766;9.626;2023-07-29T14:20:44;24.60;99.90
12872;DHT22;6504;53.766;9.626;2023-07-29T14:23:13;24.70;99.90
12872;DHT22;6504;53.766;9.626;2023-07-29T14:25:41;24.90;99.90
12872;DHT22;6504;53.766;9.626;2023-07-29T14:28:10;24.90;99.90
12872;DHT22;6504;53.766;9.626;2023-07-29T14:30:38;25.10;99.90
12872;DHT22;6504;53.766;9.626;2023-07-29T14:33:07;25.10;99.90
12872;DHT22;6504;53.766;9.626;2023-07-29T14:35:36;25.10;99.90
12872;DHT22;6504;53.766;9.626;2023-07-29T14:38:04;25.10;99.90
12872;DHT22;6504;53.766;9.626;2023-07-29T14:40:33;25.10;99.90
12872;DHT22;6504;53.766;9.626;2023-07-29T14:43:01;25.00;99.90
12872;DHT22;6504;53.766;9.626;2023-07-29T14:45:30;25.10;99.90
12872;DHT22;6504;53.766;9.626;2023-07-29T14:47:58;25.10;99.90
12872;DHT22;6504;53.766;9.626;2023-07-29T14:50:26;25.20;99.90
12872;DHT22;6504;53.766;9.626;2023-07-29T14:52:54;25.20;99.90
12872;DHT22;6504;53.766;9.626;2023-07-29T14:55:22;25.10;99.90
12872;DHT22;6504;53.766;9.626;2023-07-29T14:57:51;25.10;99.90
12872;DHT22;6504;53.766;9.626;2023-07-29T15:00:20;25.20;99.90
12872;DHT22;6504;53.766;9.626;2023-07-29T15:02:48;25.20;99.90
12872;DHT22;6504;53.766;9.626;2023-07-29T15:05:16;25.20;99.90
12872;DHT22;6504;53.766;9.626;2023-07-29T15:07:44;25.30;99.90
12872;DHT22;6504;53.766;9.626;2023-07-29T15:10:14;25.40;99.90
12872;DHT22;6504;53.766;9.626;2023-07-29T15:12:43;25.40;99.90
12872;DHT22;6504;53.766;9.626;2023-07-29T15:15:13;25.40;99.90
12872;DHT22;6504;53.766;9.626;2023-07-29T15:17:41;25.50;99.90
12872;DHT22;6504;53.766;9.626;2023-07-29T15:20:10;25.40;99.90
12872;DHT22;6504;53.766;9.626;2023-07-29T15:22:38;25.40;99.90
12872;DHT22;6504;53.766;9.626;2023-07-29T15:25:09;25.30;99.90
12872;DHT22;6504;53.766;9.626;2023-07-29T15:27:37;25.20;99.90
12872;DHT22;6504;53.766;9.626;2023-07-29T15:30:06;25.10;99.90
12872;DHT22;6504;53.766;9.626;2023-07-29T15:32:36;24.90;99.90
12872;DHT22;6504;53.766;9.626;2023-07-29T15:35:05;24.90;99.90
12872;DHT22;6504;53.766;9.626;2023-07-29T15:37:33;24.80;99.90
12872;DHT22;6504;53.766;9.626;2023-07-29T15:40:01;24.80;99.90
12872;DHT22;6504;53.766;9.626;2023-07-29T15:42:30;24.70;99.90
12872;DHT22;6504;53.766;9.626;2023-07-29T15:44:58;24.60;99.90
12872;DHT22;6504;53.766;9.626;2023-07-29T15:47:26;24.40;99.90
12872;DHT22;6504;53.766;9.626;2023-07-29T15:49:56;24.30;99.90
12872;DHT22;6504;53.766;9.626;2023-07-29T15:52:24;24.20;99.90
12872;DHT22;6504;53.766;9.626;2023-07-29T15:54:53;24.00;99.90
12872;DHT22;6504;53.766;9.626;2023-07-29T15:57:22;23.80;99.90
12872;DHT22;6504;53.766;9.626;2023-07-29T15:59:50;23.60;99.90